Time;durP1;ratioP1;P1;durP2;ratioP2;P2;SDS_P1;SDS_P2;PMS_P1;PMS_P2;Temp;Humidity;BMP_temperature;BMP_pressure;BME280_temperature;BME280_humidity;BME280_pressure;Samples;Min_cycle;Max_cycle;Signal;HPM_P1;HPM_P2
2022/01/09 00:00:19;;;;;;;20.97;11.23;;;2.60;55.60;;;;;;5073727;28;20028;-70
2022/01/09 00:02:45;;;;;;;19.43;11.10;;;2.50;55.20;;;;;;5073528;28;20027;-70
2022/01/09 00:05:12;;;;;;;23.53;11.40;;;2.50;56.40;;;;;;5073470;28;20020;-70
2022/01/09 00:07:38;;;;;;;21.67;10.33;;;2.50;56.10;;;;;;5073160;28;20040;-71
2022/01/09 00:10:05;;;;;;;22.00;11.53;;;2.40;55.90;;;;;;5073536;28;20024;-70
2022/01/09 00:12:31;;;;;;;21.00;10.77;;;2.40;56.00;;;;;;5073569;28;20048;-69
2022/01/09 00:14:57;;;;;;;24.73;12.30;;;2.30;56.70;;;;;;5073130;28;20056;-70
2022/01/09 00:17:22;;;;;;;23.90;11.87;;;2.30;56.50;;;;;;5073182;28;20036;-70
2022/01/09 00:19:48;;;;;;;24.90;12.33;;;2.30;57.20;;;;;;5072865;28;20505;-70
2022/01/09 00:22:16;;;;;;;23.50;11.93;;;2.30;57.90;;;;;;5073316;28;20033;-69
2022/01/09 00:24:42;;;;;;;20.13;11.63;;;2.30;58.30;;;;;;5073167;28;20377;-70
2022/01/09 00:27:08;;;;;;;22.87;11.93;;;2.20;58.80;;;;;;5073250;28;20033;-70
2022/01/09 00:29:33;;;;;;;20.73;11.77;;;2.20;58.90;;;;;;5073191;28;20384;-70
2022/01/09 00:31:59;;;;;;;20.73;11.80;;;2.20;59.50;;;;;;5073176;28;20024;-70
2022/01/09 00:34:25;;;;;;;18.70;10.57;;;2.20;59.50;;;;;;5073252;28;20423;-70
2022/01/09 00:36:50;;;;;;;15.93;8.37;;;2.20;60.20;;;;;;5073171;28;20020;-70
2022/01/09 00:39:16;;;;;;;14.80;7.83;;;2.10;59.50;;;;;;5073129;28;20065;-70
2022/01/09 00:41:41;;;;;;;17.83;8.93;;;2.10;59.40;;;;;;5073320;28;20082;-70
2022/01/09 00:44:07;;;;;;;14.33;8.17;;;2.10;59.50;;;;;;5073130;28;20025;-70
2022/01/09 00:46:33;;;;;;;14.83;8.03;;;2.10;59.10;;;;;;5073219;28;20013;-70
2022/01/09 00:49:03;;;;;;;15.43;8.33;;;2.10;58.80;;;;;;5072986;28;20036;-70
2022/01/09 00:51:29;;;;;;;15.40;7.57;;;2.10;59.00;;;;;;5072901;28;20423;-70
2022/01/09 00:53:55;;;;;;;10.80;6.57;;;2.20;58.40;;;;;;5073263;28;20035;-70
2022/01/09 00:56:20;;;;;;;12.57;7.80;;;2.20;58.70;;;;;;5073156;28;20055;-70
2022/01/09 00:58:46;;;;;;;14.17;7.90;;;2.10;58.30;;;;;;5076920;28;20023;-70
2022/01/09 01:01:12;;;;;;;16.30;9.23;;;2.10;58.50;;;;;;5076761;28;20545;-70
2022/01/09 01:03:38;;;;;;;16.67;8.60;;;2.10;58.80;;;;;;5076949;28;20036;-70
2022/01/09 01:06:04;;;;;;;14.40;8.03;;;2.10;59.00;;;;;;5076935;28;20063;-70
2022/01/09 01:08:30;;;;;;;14.73;7.80;;;2.10;59.00;;;;;;5076850;28;20060;-70
2022/01/09 01:10:55;;;;;;;15.93;7.27;;;2.10;58.70;;;;;;5076667;28;20503;-70
2022/01/09 01:13:21;;;;;;;12.00;7.53;;;2.10;58.60;;;;;;5076817;28;20032;-70
2022/01/09 01:15:47;;;;;;;13.47;6.80;;;2.10;59.00;;;;;;5076891;28;20095;-70
2022/01/09 01:18:13;;;;;;;12.00;7.23;;;2.00;60.80;;;;;;5076686;28;20099;-70
2022/01/09 01:20:40;;;;;;;12.83;7.03;;;2.00;60.30;;;;;;5076746;28;20044;-70
2022/01/09 01:23:06;;;;;;;11.53;6.87;;;2.00;61.50;;;;;;5076492;28;20016;-70
2022/01/09 01:25:32;;;;;;;10.43;6.30;;;2.00;60.40;;;;;;5076539;28;20376;-69
2022/01/09 01:27:58;;;;;;;11.23;6.50;;;2.00;60.90;;;;;;5076486;28;20029;-70
2022/01/09 01:30:23;;;;;;;12.17;6.63;;;2.00;60.90;;;;;;5076409;28;20035;-70
2022/01/09 01:32:49;;;;;;;12.90;6.60;;;1.90;60.60;;;;;;5076633;28;20108;-70
2022/01/09 01:35:15;;;;;;;11.03;6.70;;;1.90;61.50;;;;;;5076343;28;20028;-70
2022/01/09 01:37:42;;;;;;;11.37;6.50;;;1.90;61.00;;;;;;5076329;28;20020;-70
2022/01/09 01:40:11;;;;;;;10.57;5.97;;;1.80;60.70;;;;;;5076164;28;20033;-70
2022/01/09 01:42:37;;;;;;;12.47;7.03;;;1.80;61.30;;;;;;5076455;28;20111;-70
2022/01/09 01:45:03;;;;;;;12.67;6.87;;;1.80;60.80;;;;;;5076161;28;20059;-70
2022/01/09 01:47:29;;;;;;;12.63;6.07;;;1.80;60.50;;;;;;5076190;28;20040;-70
2022/01/09 01:49:55;;;;;;;12.20;6.90;;;1.90;61.20;;;;;;5075908;28;20146;-70
2022/01/09 01:52:27;;;;;;;12.13;6.57;;;1.90;61.20;;;;;;5075919;28;20412;-70
2022/01/09 01:54:53;;;;;;;13.70;7.00;;;2.00;60.50;;;;;;5076020;28;20381;-70
2022/01/09 01:57:19;;;;;;;17.43;8.97;;;2.00;59.50;;;;;;5075857;28;20021;-70
2022/01/09 01:59:45;;;;;;;18.37;8.77;;;2.00;59.10;;;;;;5072323;28;20031;-70
2022/01/09 02:02:10;;;;;;;16.50;9.43;;;2.00;59.20;;;;;;5073228;28;20039;-70
2022/01/09 02:04:36;;;;;;;16.93;8.63;;;2.00;59.10;;;;;;5074054;28;20238;-70
2022/01/09 02:07:03;;;;;;;17.67;9.07;;;2.00;59.40;;;;;;5075475;28;20163;-70
2022/01/09 02:09:29;;;;;;;17.00;9.00;;;2.00;58.80;;;;;;5074380;28;20489;-70
2022/01/09 02:11:54;;;;;;;18.53;9.23;;;2.00;58.80;;;;;;5075736;28;20060;-70
2022/01/09 02:14:20;;;;;;;14.63;7.87;;;2.00;59.10;;;;;;5075262;28;20121;-70
2022/01/09 02:16:48;;;;;;;16.87;8.60;;;1.90;59.30;;;;;;5074423;28;20028;-70
2022/01/09 02:19:15;;;;;;;15.73;8.30;;;1.90;59.30;;;;;;5075158;28;20060;-70
2022/01/09 02:21:45;;;;;;;16.80;9.60;;;1.90;59.50;;;;;;5075268;28;20052;-70
2022/01/09 02:24:14;;;;;;;13.93;8.17;;;1.90;58.70;;;;;;5075656;28;20500;-70
2022/01/09 02:26:40;;;;;;;13.57;8.47;;;1.90;58.40;;;;;;5075643;28;20110;-70
2022/01/09 02:29:06;;;;;;;14.97;8.50;;;1.90;58.60;;;;;;5075220;28;20028;-71
2022/01/09 02:31:33;;;;;;;15.57;8.53;;;1.90;58.90;;;;;;5075231;28;20071;-71
2022/01/09 02:33:59;;;;;;;13.73;7.57;;;1.90;59.20;;;;;;5075152;28;20120;-70
2022/01/09 02:36:25;;;;;;;18.63;8.77;;;1.90;59.00;;;;;;5074886;28;20063;-70
2022/01/09 02:38:50;;;;;;;14.30;8.37;;;1.80;58.60;;;;;;5090834;28;20036;-70
2022/01/09 02:41:16;;;;;;;13.63;7.90;;;1.80;58.50;;;;;;5075286;28;20404;-70
2022/01/09 02:43:42;;;;;;;15.80;6.97;;;1.90;58.60;;;;;;5074813;28;20041;-70
2022/01/09 02:46:29;;;;;;;13.27;7.67;;;1.80;58.60;;;;;;5074906;28;20070;-70
2022/01/09 02:48:56;;;;;;;12.07;6.90;;;1.80;59.00;;;;;;5074618;28;20113;-70
2022/01/09 02:51:22;;;;;;;13.03;7.63;;;1.80;59.00;;;;;;5074697;28;20013;-70
2022/01/09 02:53:49;;;;;;;13.93;7.60;;;1.80;58.70;;;;;;5074951;28;20024;-70
2022/01/09 02:56:16;;;;;;;14.30;7.50;;;1.80;59.50;;;;;;5075233;28;20470;-69
2022/01/09 02:58:42;;;;;;;12.93;7.23;;;1.80;60.00;;;;;;5074369;28;20350;-70
2022/01/09 03:01:10;;;;;;;11.70;6.77;;;1.80;59.40;;;;;;5073382;28;20025;-70
2022/01/09 03:03:37;;;;;;;18.67;6.90;;;1.80;59.40;;;;;;5074840;28;20021;-69
2022/01/09 03:06:03;;;;;;;12.60;7.30;;;1.70;59.30;;;;;;5074686;28;20029;-69
2022/01/09 03:08:30;;;;;;;14.43;7.63;;;1.70;59.00;;;;;;5074450;28;20037;-71
2022/01/09 03:10:56;;;;;;;14.80;7.20;;;1.70;58.80;;;;;;5074533;28;20020;-70
2022/01/09 03:13:22;;;;;;;15.87;7.30;;;1.70;59.00;;;;;;5074562;28;20016;-70
2022/01/09 03:15:48;;;;;;;14.30;7.73;;;1.70;58.90;;;;;;5074787;28;20115;-70
2022/01/09 03:18:13;;;;;;;12.53;7.00;;;1.70;59.00;;;;;;5074358;28;20063;-70
2022/01/09 03:20:40;;;;;;;11.97;6.73;;;1.70;59.10;;;;;;5073818;28;20059;-70
2022/01/09 03:23:06;;;;;;;14.07;6.70;;;1.70;59.60;;;;;;5074392;28;20048;-70
2022/01/09 03:25:32;;;;;;;13.53;7.50;;;1.60;59.90;;;;;;5074182;28;20028;-69
2022/01/09 03:27:58;;;;;;;11.87;6.87;;;1.60;59.70;;;;;;5074133;28;20036;-69
2022/01/09 03:30:25;;;;;;;11.13;6.97;;;1.60;59.80;;;;;;5074047;28;20108;-70
2022/01/09 03:32:52;;;;;;;14.17;6.93;;;1.60;59.90;;;;;;5074041;28;20032;-70
2022/01/09 03:35:20;;;;;;;13.20;7.17;;;1.50;59.80;;;;;;5074159;28;20112;-70
2022/01/09 03:37:47;;;;;;;12.03;6.53;;;1.50;60.00;;;;;;5073808;28;20482;-70
2022/01/09 03:40:19;;;;;;;10.23;6.43;;;1.40;61.00;;;;;;5073907;28;20028;-69
2022/01/09 03:42:49;;;;;;;12.53;6.90;;;1.50;60.90;;;;;;5073887;28;20481;-70
2022/01/09 03:45:15;;;;;;;13.07;7.33;;;1.40;61.40;;;;;;5073893;28;20020;-70
2022/01/09 03:47:42;;;;;;;10.10;6.40;;;1.40;61.50;;;;;;5073753;28;20115;-70
2022/01/09 03:50:10;;;;;;;13.07;6.17;;;1.40;61.90;;;;;;5073901;28;20365;-70
2022/01/09 03:52:38;;;;;;;13.00;7.30;;;1.40;61.80;;;;;;5072810;28;20028;-70
2022/01/09 03:55:08;;;;;;;13.80;6.67;;;1.40;62.40;;;;;;5070912;28;20021;-70
2022/01/09 03:57:34;;;;;;;12.40;6.80;;;1.40;62.60;;;;;;5070713;28;20549;-70
2022/01/09 03:59:59;;;;;;;15.23;7.80;;;1.50;62.20;;;;;;5072232;28;20091;-70
2022/01/09 04:02:25;;;;;;;16.27;7.67;;;1.50;62.10;;;;;;5073378;28;20017;-69
2022/01/09 04:04:51;;;;;;;12.40;7.30;;;1.50;61.90;;;;;;5073614;28;20165;-70
2022/01/09 04:07:17;;;;;;;13.30;7.13;;;1.50;61.70;;;;;;5073344;28;20039;-69
2022/01/09 04:09:45;;;;;;;13.87;6.77;;;1.50;61.60;;;;;;5073483;28;20036;-70
2022/01/09 04:12:18;;;;;;;11.33;6.67;;;1.50;62.40;;;;;;5073607;28;20017;-69
2022/01/09 04:14:46;;;;;;;14.07;7.37;;;1.60;62.00;;;;;;5073099;28;20036;-70
2022/01/09 04:17:19;;;;;;;13.93;7.33;;;1.50;62.00;;;;;;5073530;28;20035;-69
2022/01/09 04:19:45;;;;;;;12.43;7.17;;;1.60;62.10;;;;;;5073516;28;20389;-70
2022/01/09 04:22:11;;;;;;;11.17;6.57;;;1.60;62.20;;;;;;5073364;28;20036;-70
2022/01/09 04:24:37;;;;;;;11.60;6.13;;;1.60;62.30;;;;;;5073575;28;20028;-69
2022/01/09 04:27:02;;;;;;;13.50;7.30;;;1.60;62.80;;;;;;5073048;28;20036;-69
2022/01/09 04:29:28;;;;;;;13.60;7.17;;;1.50;63.70;;;;;;5073235;28;20062;-69
2022/01/09 04:31:54;;;;;;;13.90;7.77;;;1.50;64.20;;;;;;5072391;28;20445;-71
2022/01/09 04:34:19;;;;;;;15.93;7.57;;;1.60;64.40;;;;;;5073107;28;20031;-70
2022/01/09 04:36:45;;;;;;;11.77;6.90;;;1.50;63.40;;;;;;5073171;28;20066;-70
2022/01/09 04:39:11;;;;;;;12.33;7.07;;;1.50;62.40;;;;;;5073253;28;20486;-70
2022/01/09 04:41:36;;;;;;;12.27;6.40;;;1.50;62.40;;;;;;5072812;28;20021;-70
2022/01/09 04:44:02;;;;;;;12.63;7.23;;;1.50;63.00;;;;;;5072957;28;20024;-70
2022/01/09 04:46:38;;;;;;;14.87;7.53;;;1.40;63.60;;;;;;5073378;28;20013;-70
2022/01/09 04:49:04;;;;;;;14.97;7.30;;;1.40;63.50;;;;;;5073382;28;20111;-70
2022/01/09 04:51:30;;;;;;;12.10;7.17;;;1.30;63.30;;;;;;5072956;28;20474;-71
2022/01/09 04:53:55;;;;;;;14.27;7.50;;;1.40;63.50;;;;;;5073256;28;20020;-70
2022/01/09 04:56:21;;;;;;;12.50;6.63;;;1.30;64.20;;;;;;5073373;28;20032;-70
2022/01/09 04:58:46;;;;;;;13.20;6.80;;;1.30;64.70;;;;;;5072852;28;20064;-71
2022/01/09 05:01:12;;;;;;;9.93;5.67;;;1.30;64.10;;;;;;5072991;28;20372;-69
2022/01/09 05:03:38;;;;;;;8.67;5.80;;;1.30;63.30;;;;;;5072693;28;20099;-70
2022/01/09 05:06:04;;;;;;;11.13;5.63;;;1.40;63.10;;;;;;5072892;28;20017;-70
2022/01/09 05:08:29;;;;;;;11.33;5.73;;;1.40;62.70;;;;;;5072668;28;20495;-69
2022/01/09 05:10:55;;;;;;;12.50;6.60;;;1.50;62.50;;;;;;5072862;28;20029;-70
2022/01/09 05:13:21;;;;;;;10.67;5.87;;;1.50;62.60;;;;;;5072627;28;20533;-70
2022/01/09 05:15:47;;;;;;;11.07;5.80;;;1.50;62.60;;;;;;5072757;28;20029;-69
2022/01/09 05:18:14;;;;;;;11.87;5.50;;;1.50;62.30;;;;;;5072821;28;20020;-70
2022/01/09 05:20:43;;;;;;;10.17;5.27;;;1.50;62.50;;;;;;5072477;28;20400;-70
2022/01/09 05:23:10;;;;;;;9.17;5.20;;;1.50;62.30;;;;;;5072731;28;20036;-69
2022/01/09 05:25:36;;;;;;;16.33;5.73;;;1.50;62.20;;;;;;5072703;28;20492;-69
2022/01/09 05:28:02;;;;;;;9.23;5.13;;;1.50;62.40;;;;;;5072770;28;20044;-70
2022/01/09 05:30:27;;;;;;;8.53;5.30;;;1.50;63.30;;;;;;5072636;28;20028;-69
2022/01/09 05:32:53;;;;;;;8.57;5.53;;;1.40;63.50;;;;;;5072434;28;20416;-70
2022/01/09 05:35:19;;;;;;;9.47;5.40;;;1.40;64.20;;;;;;5072631;28;20024;-69
2022/01/09 05:37:44;;;;;;;11.67;4.90;;;1.40;64.10;;;;;;5072765;28;20029;-70
2022/01/09 05:40:11;;;;;;;9.63;5.27;;;1.40;63.90;;;;;;5072437;28;20058;-70
2022/01/09 05:42:37;;;;;;;11.20;5.60;;;1.40;64.60;;;;;;5073035;28;20021;-70
2022/01/09 05:45:04;;;;;;;9.23;4.87;;;1.40;64.40;;;;;;5075907;28;20047;-69
2022/01/09 05:47:30;;;;;;;8.40;4.63;;;1.40;64.30;;;;;;5076253;28;20034;-70
2022/01/09 05:49:56;;;;;;;10.33;4.70;;;1.50;64.20;;;;;;5076251;28;20103;-70
2022/01/09 05:52:21;;;;;;;9.27;4.90;;;1.50;64.10;;;;;;5075987;28;20406;-70
2022/01/09 05:54:48;;;;;;;9.30;5.07;;;1.50;64.60;;;;;;5076100;28;20025;-70
2022/01/09 05:57:14;;;;;;;8.83;4.80;;;1.50;64.80;;;;;;5076162;28;20362;-70
2022/01/09 05:59:39;;;;;;;7.97;4.53;;;1.50;64.60;;;;;;5076150;28;20027;-73
2022/01/09 06:02:06;;;;;;;8.50;4.73;;;1.50;64.20;;;;;;5076084;28;20503;-69
2022/01/09 06:04:31;;;;;;;14.40;4.70;;;1.50;63.60;;;;;;5075994;28;20440;-69
2022/01/09 06:06:57;;;;;;;8.70;5.03;;;1.60;63.50;;;;;;5075798;28;20036;-70
2022/01/09 06:09:23;;;;;;;7.70;4.80;;;1.60;63.70;;;;;;5075838;28;20031;-70
2022/01/09 06:11:49;;;;;;;8.03;4.23;;;1.60;64.10;;;;;;5076187;28;20059;-70
2022/01/09 06:14:14;;;;;;;10.40;5.00;;;1.50;66.00;;;;;;5075869;28;20039;-70
2022/01/09 06:16:40;;;;;;;8.03;4.20;;;1.50;66.30;;;;;;5075982;28;20095;-70
2022/01/09 06:19:06;;;;;;;7.00;4.17;;;1.50;66.10;;;;;;5075794;28;20024;-72
2022/01/09 06:21:31;;;;;;;9.07;4.23;;;1.50;66.20;;;;;;5075510;28;20044;-70
2022/01/09 06:23:57;;;;;;;6.60;3.70;;;1.50;66.30;;;;;;5075473;28;20024;-70
2022/01/09 06:26:22;;;;;;;6.87;3.80;;;1.60;65.60;;;;;;5075542;28;20027;-70
2022/01/09 06:28:48;;;;;;;5.30;2.93;;;1.60;65.10;;;;;;5075702;28;20047;-70
2022/01/09 06:31:14;;;;;;;6.47;3.23;;;1.60;64.80;;;;;;5075383;28;20029;-71
2022/01/09 06:33:40;;;;;;;7.17;3.77;;;1.70;64.40;;;;;;5075376;28;20031;-70
2022/01/09 06:36:05;;;;;;;8.00;4.10;;;1.60;64.50;;;;;;5075467;28;20021;-70
2022/01/09 06:38:31;;;;;;;7.00;3.83;;;1.60;64.40;;;;;;5075556;28;20025;-70
2022/01/09 06:40:57;;;;;;;8.27;3.90;;;1.70;66.00;;;;;;5075269;28;20552;-70
2022/01/09 06:43:22;;;;;;;6.37;3.67;;;1.70;66.10;;;;;;5074885;28;20025;-70
2022/01/09 06:45:48;;;;;;;7.70;3.90;;;1.70;65.30;;;;;;5075506;28;20032;-70
2022/01/09 06:48:14;;;;;;;8.73;4.50;;;1.70;65.00;;;;;;5074987;28;20040;-70
2022/01/09 06:50:40;;;;;;;9.20;4.63;;;1.80;64.30;;;;;;5074882;28;20070;-71
2022/01/09 06:53:05;;;;;;;13.77;5.60;;;1.70;63.80;;;;;;5074834;28;20537;-70
2022/01/09 06:55:31;;;;;;;9.90;5.37;;;1.70;64.30;;;;;;5074097;28;20024;-70
2022/01/09 06:57:57;;;;;;;10.20;5.23;;;1.80;64.50;;;;;;5074886;28;20417;-69
2022/01/09 07:00:22;;;;;;;10.00;5.07;;;1.70;64.20;;;;;;5075255;28;20469;-70
2022/01/09 07:02:49;;;;;;;8.53;4.50;;;1.70;64.00;;;;;;5074617;28;20040;-70
2022/01/09 07:05:15;;;;;;;10.53;4.90;;;1.70;64.10;;;;;;5074799;28;20032;-70
2022/01/09 07:07:41;;;;;;;11.20;5.47;;;1.70;65.00;;;;;;5074807;28;20499;-70
2022/01/09 07:10:08;;;;;;;10.03;5.20;;;1.70;65.40;;;;;;5074662;28;20039;-69
2022/01/09 07:12:35;;;;;;;6.47;4.37;;;1.70;65.50;;;;;;5074503;28;20106;-70
2022/01/09 07:15:01;;;;;;;10.17;4.37;;;1.70;65.10;;;;;;5074620;28;20032;-70
2022/01/09 07:17:26;;;;;;;7.70;4.33;;;1.70;64.80;;;;;;5074482;28;20473;-70
2022/01/09 07:19:52;;;;;;;9.90;5.43;;;1.80;64.40;;;;;;5074393;28;20082;-70
2022/01/09 07:22:18;;;;;;;9.73;5.30;;;1.80;64.80;;;;;;5074388;28;20050;-70
2022/01/09 07:24:43;;;;;;;14.03;7.93;;;1.80;64.70;;;;;;5074328;28;20033;-70
2022/01/09 07:27:09;;;;;;;17.77;9.27;;;1.80;64.50;;;;;;5074364;28;20028;-70
2022/01/09 07:29:35;;;;;;;18.00;10.27;;;1.80;64.50;;;;;;5074751;28;20366;-69
2022/01/09 07:32:01;;;;;;;19.70;9.83;;;1.80;64.40;;;;;;5075287;28;20350;-70
2022/01/09 07:34:27;;;;;;;16.80;9.03;;;1.80;64.90;;;;;;5074030;28;20082;-70
2022/01/09 07:36:52;;;;;;;19.20;9.90;;;1.80;65.40;;;;;;5074044;28;20067;-70
2022/01/09 07:39:19;;;;;;;17.97;9.23;;;1.80;65.30;;;;;;5074255;28;20393;-70
2022/01/09 07:41:45;;;;;;;13.77;8.27;;;1.80;64.90;;;;;;5073811;28;20032;-70
2022/01/09 07:44:10;;;;;;;17.77;8.87;;;1.80;65.10;;;;;;5074009;28;20021;-69
2022/01/09 07:46:36;;;;;;;16.23;9.20;;;1.80;64.90;;;;;;5074039;28;20021;-70
2022/01/09 07:49:02;;;;;;;15.30;8.67;;;1.70;66.10;;;;;;5074087;28;20039;-72
2022/01/09 07:51:28;;;;;;;14.53;8.63;;;1.70;67.10;;;;;;5073893;28;20419;-70
2022/01/09 07:53:54;;;;;;;15.50;8.63;;;1.70;67.40;;;;;;5073646;28;20107;-70
2022/01/09 07:56:19;;;;;;;17.47;8.17;;;1.70;66.50;;;;;;5073809;28;20062;-70
2022/01/09 07:58:45;;;;;;;14.93;8.50;;;1.70;65.70;;;;;;5073854;28;20021;-70
2022/01/09 08:01:11;;;;;;;15.50;7.70;;;1.80;65.70;;;;;;5073625;28;20027;-68
2022/01/09 08:03:36;;;;;;;14.73;7.13;;;1.70;65.20;;;;;;5073546;28;20025;-68
2022/01/09 08:06:03;;;;;;;12.00;6.70;;;1.90;64.20;;;;;;5073457;28;20085;-69
2022/01/09 08:08:29;;;;;;;12.13;6.63;;;1.80;64.40;;;;;;5073617;28;20111;-68
2022/01/09 08:10:55;;;;;;;11.60;6.73;;;1.80;66.40;;;;;;5073318;28;20417;-68
2022/01/09 08:13:20;;;;;;;13.27;7.30;;;1.80;65.60;;;;;;5073192;28;20033;-67
2022/01/09 08:15:47;;;;;;;12.17;6.50;;;1.90;65.40;;;;;;5073459;28;20449;-68
2022/01/09 08:18:12;;;;;;;11.33;6.23;;;1.80;65.80;;;;;;5071139;28;20040;-69
2022/01/09 08:20:38;;;;;;;11.67;6.07;;;1.90;65.60;;;;;;5070543;28;20118;-68
2022/01/09 08:23:04;;;;;;;11.57;6.37;;;1.90;64.80;;;;;;5070530;28;20493;-69
2022/01/09 08:25:30;;;;;;;13.37;7.00;;;1.90;64.20;;;;;;5072885;28;20085;-70
2022/01/09 08:27:56;;;;;;;14.43;7.80;;;2.00;63.90;;;;;;5073141;28;20037;-69
2022/01/09 08:30:23;;;;;;;15.77;8.63;;;1.90;64.00;;;;;;5073294;28;20078;-67
2022/01/09 08:32:49;;;;;;;13.07;8.50;;;1.90;65.20;;;;;;5072756;28;20035;-68
2022/01/09 08:35:15;;;;;;;14.03;8.37;;;1.90;65.90;;;;;;5072896;28;20036;-67
2022/01/09 08:37:42;;;;;;;16.80;10.10;;;1.90;65.10;;;;;;5073116;28;20055;-67
2022/01/09 08:40:13;;;;;;;16.27;10.40;;;1.90;65.80;;;;;;5071695;28;20024;-68
2022/01/09 08:42:40;;;;;;;17.57;10.00;;;1.90;65.90;;;;;;5072957;28;20036;-68
2022/01/09 08:45:06;;;;;;;18.60;10.70;;;1.90;66.40;;;;;;5072706;28;20021;-68
2022/01/09 08:47:35;;;;;;;17.13;9.83;;;2.00;66.10;;;;;;5072554;28;20536;-68
2022/01/09 08:50:02;;;;;;;14.87;8.40;;;2.00;66.00;;;;;;5071909;28;20430;-68
2022/01/09 08:52:28;;;;;;;14.33;8.50;;;2.00;65.60;;;;;;5072934;28;20033;-68
2022/01/09 08:54:53;;;;;;;15.07;8.90;;;2.00;65.50;;;;;;5072650;28;20024;-69
2022/01/09 08:57:19;;;;;;;13.07;8.10;;;2.00;65.40;;;;;;5070335;28;20381;-67
2022/01/09 08:59:45;;;;;;;15.47;8.37;;;2.00;65.70;;;;;;5070152;28;20034;-67
2022/01/09 09:02:10;;;;;;;12.77;8.20;;;2.00;65.80;;;;;;5071993;28;20051;-69
2022/01/09 09:04:38;;;;;;;14.47;7.43;;;2.00;66.70;;;;;;5072651;28;20029;-70
2022/01/09 09:07:04;;;;;;;12.20;7.43;;;2.00;66.30;;;;;;5072879;28;20032;-67
2022/01/09 09:09:29;;;;;;;15.63;8.10;;;2.10;66.30;;;;;;5072879;28;20032;-67
2022/01/09 09:11:55;;;;;;;12.63;7.37;;;2.10;66.10;;;;;;5072977;28;20025;-67
2022/01/09 09:14:22;;;;;;;12.50;6.63;;;2.10;66.20;;;;;;5072819;28;20032;-67
2022/01/09 09:16:48;;;;;;;11.87;7.20;;;2.10;66.10;;;;;;5072817;28;20025;-66
2022/01/09 09:19:13;;;;;;;15.33;7.30;;;2.20;66.40;;;;;;5076078;28;20089;-70
2022/01/09 09:21:39;;;;;;;11.63;6.67;;;2.20;66.30;;;;;;5076623;28;20532;-66
2022/01/09 09:24:05;;;;;;;14.67;7.67;;;2.20;66.10;;;;;;5076499;28;20111;-66
2022/01/09 09:26:30;;;;;;;13.47;6.97;;;2.20;65.80;;;;;;5076510;28;20024;-67
2022/01/09 09:28:56;;;;;;;11.63;7.03;;;2.30;65.60;;;;;;5072978;28;20125;-67
2022/01/09 09:31:22;;;;;;;12.03;6.90;;;2.30;65.50;;;;;;5073883;28;20062;-69
2022/01/09 09:33:48;;;;;;;12.60;6.73;;;2.40;66.10;;;;;;5073813;28;20036;-68
2022/01/09 09:36:14;;;;;;;13.27;7.00;;;2.40;65.20;;;;;;5076384;28;20024;-71
2022/01/09 09:38:39;;;;;;;13.80;7.33;;;2.40;65.30;;;;;;5076512;28;20389;-69
2022/01/09 09:41:05;;;;;;;14.97;7.63;;;2.40;65.30;;;;;;5076532;28;20027;-67
2022/01/09 09:43:31;;;;;;;14.07;8.43;;;2.40;65.10;;;;;;5076543;28;20044;-67
2022/01/09 09:45:56;;;;;;;13.27;8.47;;;2.40;64.90;;;;;;5076436;28;20067;-67
2022/01/09 09:48:22;;;;;;;20.53;11.17;;;2.40;65.10;;;;;;5076155;28;20480;-67
2022/01/09 09:50:48;;;;;;;20.43;11.47;;;2.40;65.70;;;;;;5076380;28;20021;-66
2022/01/09 09:53:14;;;;;;;21.10;11.80;;;2.40;65.90;;;;;;5074588;28;20052;-67
2022/01/09 09:55:41;;;;;;;17.80;10.90;;;2.40;66.40;;;;;;5073546;28;20392;-73
2022/01/09 09:58:07;;;;;;;18.47;11.73;;;2.40;66.50;;;;;;5073329;28;20048;-73
2022/01/09 10:00:33;;;;;;;21.10;12.33;;;2.60;66.50;;;;;;5074947;28;20048;-73
2022/01/09 10:03:01;;;;;;;21.90;13.43;;;2.70;66.20;;;;;;5075834;28;20013;-72
2022/01/09 10:05:32;;;;;;;21.17;13.23;;;2.80;65.70;;;;;;5075736;28;20094;-73
2022/01/09 10:08:06;;;;;;;22.33;13.57;;;2.90;65.10;;;;;;5075416;28;20039;-73
2022/01/09 10:10:33;;;;;;;24.37;14.67;;;3.00;64.60;;;;;;5075447;28;20112;-72
2022/01/09 10:13:19;;;;;;;23.97;14.07;;;3.00;64.20;;;;;;5075707;28;20376;-73
2022/01/09 10:15:56;;;;;;;23.00;12.97;;;3.10;63.90;;;;;;5075330;28;20565;-75
2022/01/09 10:18:47;;;;;;;19.13;11.63;;;3.10;63.70;;;;;;5075448;28;20032;-73
2022/01/09 10:21:17;;;;;;;16.97;10.57;;;3.10;64.20;;;;;;5075231;28;20527;-73
2022/01/09 10:24:02;;;;;;;18.53;10.87;;;3.20;63.70;;;;;;5075332;28;20028;-73
2022/01/09 10:26:30;;;;;;;18.27;11.63;;;3.20;63.40;;;;;;5075533;28;20033;-72
2022/01/09 10:28:55;;;;;;;18.37;11.13;;;3.30;63.70;;;;;;5074505;28;20036;-73
2022/01/09 10:31:21;;;;;;;21.30;12.33;;;3.30;63.50;;;;;;5074468;28;20465;-73
2022/01/09 10:33:57;;;;;;;24.17;16.17;;;3.30;63.40;;;;;;5075388;28;20488;-72
2022/01/09 10:36:43;;;;;;;50.67;31.33;;;3.30;64.10;;;;;;5075103;28;20377;-72
2022/01/09 10:39:26;;;;;;;22.47;13.50;;;3.30;64.10;;;;;;5075353;28;20502;-73
2022/01/09 10:41:58;;;;;;;;;;;3.30;63.90;;;;;;5075798;28;20021;-73
2022/01/09 10:44:27;;;;;;;21.23;11.13;;;3.30;64.00;;;;;;5075152;28;19971;-72
2022/01/09 10:47:04;;;;;;;17.50;10.83;;;3.30;63.10;;;;;;5075115;28;20021;-69
2022/01/09 10:49:49;;;;;;;21.43;12.17;;;3.30;63.70;;;;;;5075145;28;20388;-70
2022/01/09 10:52:18;;;;;;;21.37;13.00;;;3.30;63.90;;;;;;5074928;28;20044;-70
2022/01/09 10:54:46;;;;;;;21.67;11.80;;;3.30;63.90;;;;;;5075098;28;20052;-72
2022/01/09 10:57:19;;;;;;;19.80;11.90;;;3.30;64.30;;;;;;5075105;28;20537;-69
2022/01/09 10:59:45;;;;;;;;;;;3.30;64.30;;;;;;5075409;28;20374;-69
2022/01/09 11:02:12;;;;;;;18.57;11.77;;;3.30;64.60;;;;;;5074823;28;20002;-70
2022/01/09 11:04:40;;;;;;;21.43;12.73;;;3.30;64.40;;;;;;5074916;28;20082;-70
2022/01/09 11:07:06;;;;;;;27.30;13.50;;;3.30;64.40;;;;;;5074804;28;20036;-70
2022/01/09 11:09:33;;;;;;;30.40;17.73;;;3.30;65.00;;;;;;5074792;28;20372;-71
2022/01/09 11:11:59;;;;;;;26.17;15.73;;;3.30;65.00;;;;;;5074624;28;20029;-70
2022/01/09 11:14:27;;;;;;;24.27;14.07;;;3.30;64.20;;;;;;5074616;28;20099;-70
2022/01/09 11:16:55;;;;;;;24.97;13.97;;;3.30;64.70;;;;;;5073379;28;20362;-72
2022/01/09 11:19:24;;;;;;;19.33;12.50;;;3.30;65.10;;;;;;5074544;28;20028;-72
2022/01/09 11:21:59;;;;;;;19.83;12.00;;;3.30;64.70;;;;;;5074504;28;20048;-72
2022/01/09 11:24:49;;;;;;;17.67;11.53;;;3.30;64.40;;;;;;5074315;28;20020;-76
2022/01/09 11:27:37;;;;;;;21.30;12.23;;;3.20;64.80;;;;;;5074118;28;20123;-68
2022/01/09 11:30:20;;;;;;;19.83;12.13;;;3.20;64.90;;;;;;5074313;28;20028;-72
2022/01/09 11:33:17;;;;;;;19.50;11.95;;;3.20;64.60;;;;;;5074514;28;20104;-75
2022/01/09 11:35:58;;;;;;;18.10;11.13;;;3.10;64.80;;;;;;5074155;28;20020;-75
2022/01/09 11:38:38;;;;;;;20.00;12.03;;;3.10;64.40;;;;;;5074094;28;20090;-74
2022/01/09 11:41:24;;;;;;;20.43;12.23;;;3.10;64.20;;;;;;5073985;28;20050;-76
2022/01/09 11:43:51;;;;;;;19.47;11.40;;;3.10;64.40;;;;;;5073961;28;20021;-73
2022/01/09 11:46:17;;;;;;;18.90;11.30;;;3.10;64.40;;;;;;5074010;28;20055;-75
2022/01/09 11:49:00;;;;;;;29.47;21.20;;;3.20;64.70;;;;;;5073750;28;20083;-76
2022/01/09 11:51:34;;;;;;;23.57;13.47;;;3.20;64.80;;;;;;5073947;28;20017;-72
2022/01/09 11:54:15;;;;;;;19.87;11.97;;;3.10;65.30;;;;;;5073862;28;20583;-70
2022/01/09 11:56:53;;;;;;;16.07;10.30;;;3.20;64.90;;;;;;5073819;28;20400;-72
2022/01/09 11:59:23;;;;;;;18.80;11.37;;;3.20;64.50;;;;;;5070591;28;20024;-75
2022/01/09 12:01:55;;;;;;;20.97;12.33;;;3.20;65.20;;;;;;5070888;28;20049;-74
2022/01/09 12:04:33;;;;;;;21.25;13.05;;;3.20;64.80;;;;;;5071916;28;20039;-71
2022/01/09 12:07:10;;;;;;;36.60;21.27;;;3.20;64.90;;;;;;5072455;28;20388;-75
2022/01/09 12:09:41;;;;;;;44.10;24.20;;;3.20;64.90;;;;;;5073729;28;20385;-76
2022/01/09 12:12:10;;;;;;;36.00;22.50;;;3.20;65.00;;;;;;5073839;28;20050;-72
2022/01/09 12:14:42;;;;;;;27.53;16.13;;;3.20;65.40;;;;;;5073602;28;20497;-75
2022/01/09 12:17:34;;;;;;;27.10;14.70;;;3.20;65.20;;;;;;5073707;28;20028;-76
2022/01/09 12:20:08;;;;;;;24.80;14.37;;;3.20;65.00;;;;;;5073119;28;20423;-76
2022/01/09 12:22:39;;;;;;;23.73;14.57;;;3.20;65.10;;;;;;5072674;28;20033;-71
2022/01/09 12:25:09;;;;;;;27.70;14.60;;;3.30;65.60;;;;;;5070508;28;20079;-73
2022/01/09 12:27:35;;;;;;;26.23;14.53;;;3.30;65.40;;;;;;5070436;28;20032;-74
2022/01/09 12:30:02;;;;;;;27.37;15.53;;;3.30;65.50;;;;;;5071789;28;20028;-69
2022/01/09 12:32:38;;;;;;;23.90;14.67;;;3.30;65.60;;;;;;5073159;28;20477;-73
2022/01/09 12:35:17;;;;;;;24.10;15.00;;;3.30;65.30;;;;;;5073657;28;20028;-69
2022/01/09 12:37:48;;;;;;;28.87;15.50;;;3.30;65.10;;;;;;5072874;28;20017;-68
2022/01/09 12:40:16;;;;;;;31.07;15.40;;;3.30;65.30;;;;;;5073209;28;20020;-69
2022/01/09 12:42:50;;;;;;;27.73;16.13;;;3.30;65.30;;;;;;5073162;28;20033;-72
2022/01/09 12:45:21;;;;;;;26.77;15.80;;;3.30;65.00;;;;;;5072944;28;20032;-68
2022/01/09 12:47:48;;;;;;;28.57;15.80;;;3.30;64.90;;;;;;5073041;28;20057;-71